Latest Weather Observations for Cleve Airport

IDS60801

Issued at 3:31 am CDT Thursday 30 March 2017 (issued every 30 minutes, with the page automatically refreshed every 10 minutes)

About weather observations | Map of weather stations | Latest weather observations for SA | Other Formats
Station Details ID: 018116 Name: CLEVE AERODROME Lat: -33.71 Lon: 136.50 Height: 175.0 m
Data from the previous 72 hours. | See also: Recent months at Cleve Airport
Date/Time
CDT
Temp
°C
App
Temp
°C
Dew
Point
°C
Rel
Hum
%
Delta-T
°C
Wind Press
QNH
hPa
Press
MSL
hPa
Rain since
9am
mm
Dir  Spd
km/h
Gust
km/h
Spd
kts
Gust
kts
30/03:00am 8.7 4.5 5.6 81 1.4 W 17 24 9 13 1020.9 1020.4 0.4
30/02:30am 8.9 4.7 5.6 80 1.5 W 17 22 9 12 1020.8 1020.2 0.4
30/02:00am 9.1 4.5 5.7 79 1.6 W 19 24 10 13 1020.6 1020.0 0.4
30/01:30am 9.4 5.2 5.8 78 1.7 W 17 22 9 12 1020.7 1020.1 0.4
30/01:00am 9.4 4.8 5.8 78 1.7 W 19 24 10 13 1020.6 1020.0 0.4
30/12:30am 9.7 5.2 6.1 78 1.7 WSW 19 26 10 14 1020.7 1020.1 0.4
30/12:00am 9.8 5.7 6.2 78 1.7 W 17 20 9 11 1020.5 1019.9 0.4
 
Date/Time
CDT
Temp
°C
App
Temp
°C
Dew
Point
°C
Rel
Hum
%
Delta-T
°C
Wind Press
QNH
hPa
Press
MSL
hPa
Rain since
9am
mm
Dir  Spd
km/h
Gust
km/h
Spd
kts
Gust
kts
29/11:30pm 9.9 6.6 6.3 78 1.7 W 13 19 7 10 1020.3 1019.7 0.4
29/11:00pm 9.9 6.6 6.6 80 1.6 W 13 15 7 8 1020.4 1019.8 0.4
29/10:30pm 10.4 6.5 6.9 79 1.7 W 17 24 9 13 1020.1 1019.5 0.4
29/10:00pm 10.1 6.5 6.6 79 1.7 W 15 17 8 9 1019.9 1019.3 0.4
29/09:30pm 10.5 7.0 7.0 79 1.7 WSW 15 19 8 10 1019.4 1018.8 0.4
29/09:00pm 11.1 7.8 8.0 81 1.5 W 15 19 8 10 1018.8 1018.2 0.4
29/08:30pm 11.3 9.3 8.7 84 1.3 W 9 15 5 8 1018.2 1017.6 0.4
29/08:00pm 11.7 7.8 8.7 82 1.5 WSW 19 26 10 14 1017.9 1017.4 0.4
29/07:37pm 13.1 7.3 8.0 71 2.5 SW 28 54 15 29 1018.1 1017.5 0.0
29/07:30pm 13.3 8.3 8.2 71 2.5 SW 24 32 13 17 1017.6 1017.1 0.0
29/07:00pm 12.9 4.7 8.4 74 2.3 SW 41 61 22 33 1016.8 1016.3 0.0
29/06:51pm 13.7 5.6 8.5 71 2.6 SW 41 72 22 39 1016.4 1015.9 0.0
29/06:49pm 14.4 7.1 8.6 68 3.0 SW 37 72 20 39 1016.2 1015.7 0.0
29/06:48pm 15.8 8.7 8.1 60 3.9 SW 35 67 19 36 1016.1 1015.6 0.0
29/06:30pm 17.2 9.5 7.0 51 5.1 SW 37 50 20 27 1015.7 1015.1 0.0
29/06:10pm 17.5 10.7 7.5 52 5.1 SW 33 57 18 31 1015.4 1014.8 0.0
29/06:00pm 18.2 11.4 7.6 50 5.4 WSW 33 44 18 24 1015.2 1014.6 0.0
29/05:30pm 17.9 10.7 7.6 51 5.3 WSW 35 46 19 25 1014.7 1014.1 0.0
29/05:00pm 17.2 12.0 10.1 63 3.8 WSW 28 39 15 21 1014.5 1013.9 0.0
29/04:30pm 17.1 10.3 10.5 65 3.5 SW 37 52 20 28 1014.2 1013.6 0.0
29/04:00pm 18.6 12.0 9.9 57 4.7 WSW 35 48 19 26 1013.8 1013.2 0.0
29/03:30pm 17.5 11.8 11.3 67 3.4 SW 32 46 17 25 1014.0 1013.4 0.0
29/03:00pm 17.8 12.3 11.8 68 3.3 SW 32 43 17 23 1013.8 1013.2 0.0
29/02:46pm 18.0 13.1 12.5 70 3.1 SW 30 50 16 27 1013.8 1013.2 0.0
29/02:30pm 18.5 12.5 12.0 66 3.6 SW 35 44 19 24 1013.7 1013.1 0.0
29/02:00pm 18.1 11.3 13.0 72 2.9 SW 41 54 22 29 1013.7 1013.1 0.0
29/01:49pm 18.6 11.2 13.0 70 3.2 SW 44 63 24 34 1013.4 1012.8 0.0
29/01:30pm 20.4 11.5 13.1 63 4.2 WSW 52 67 28 36 1013.1 1012.5 0.0
29/01:19pm 20.1 10.7 12.6 62 4.3 WSW 54 74 29 40 1013.0 1012.4 0.0
29/01:15pm 20.5 11.2 13.0 62 4.3 WSW 54 74 29 40 1012.5 1011.9 0.0
29/01:00pm 23.5 15.6 10.9 45 7.1 WSW 43 61 23 33 1012.4 1011.8 0.0
29/12:30pm 22.2 14.5 11.6 51 6.0 W 43 61 23 33 1012.8 1012.2 0.0
29/12:16pm 22.5 16.6 12.4 52 5.8 W 35 54 19 29 1012.9 1012.3 0.0
29/12:00pm 21.0 14.6 11.9 56 5.1 W 37 54 20 29 1013.1 1012.5 0.0
29/11:59am 21.6 15.3 12.2 55 5.3 W 37 56 20 30 1013.1 1012.5 0.0
29/11:30am 20.8 14.6 12.5 59 4.7 W 37 50 20 27 1013.3 1012.7 0.0
29/11:00am 19.6 14.3 12.6 64 4.0 WNW 32 43 17 23 1013.1 1012.5 0.0
29/10:30am 18.9 14.1 12.9 68 3.4 W 30 43 16 23 1013.2 1012.6 0.0
29/10:00am 18.3 14.3 13.0 71 3.0 WNW 26 35 14 19 1013.5 1012.9 0.0
29/09:30am 17.2 13.7 13.3 78 2.2 NW 24 35 13 19 1013.4 1012.8 0.0
29/09:00am 16.0 12.9 13.3 84 1.5 NW 22 30 12 16 1013.3 1012.7 0.0
29/08:30am 15.1 12.0 13.3 89 1.0 NW 22 28 12 15 1013.0 1012.4 0.0
29/08:00am 14.3 11.4 13.0 92 0.7 NW 20 28 11 15 1012.6 1012.0 0.0
29/07:30am 13.8 11.0 12.5 92 0.7 NW 19 26 10 14 1012.7 1012.1 0.0
29/07:00am 13.7 11.6 12.3 91 0.8 NW 15 20 8 11 1012.6 1012.0 0.0
29/06:30am 13.7 11.6 12.3 91 0.8 NW 15 20 8 11 1012.5 1011.9 0.0
29/06:00am 13.5 11.2 11.9 90 0.9 NW 15 20 8 11 1012.1 1011.5 0.0
29/05:30am 13.2 11.2 11.4 89 1.0 NNW 13 15 7 8 1011.8 1011.3 0.0
29/05:00am 13.5 11.1 11.4 87 1.1 NW 15 20 8 11 1011.9 1011.4 0.0
29/04:30am 13.5 11.0 11.2 86 1.2 NW 15 19 8 10 1011.9 1011.4 0.0
29/04:00am 13.6 11.5 11.3 86 1.2 NW 13 17 7 9 1012.2 1011.6 0.0
29/03:30am 13.8 11.7 11.3 85 1.3 NW 13 19 7 10 1012.6 1012.0 0.0
29/03:00am 13.7 11.4 11.6 87 1.1 NW 15 17 8 9 1012.8 1012.2 0.0
29/02:30am 14.3 12.0 11.8 85 1.4 WNW 15 19 8 10 1012.7 1012.1 0.0
29/02:00am 14.3 12.3 11.6 84 1.5 WNW 13 15 7 8 1012.8 1012.2 0.0
29/01:30am 14.2 12.1 11.2 82 1.6 WNW 13 15 7 8 1013.1 1012.5 0.0
29/01:00am 14.1 11.8 10.5 79 1.9 NW 13 15 7 8 1013.5 1012.9 0.0
29/12:30am 14.0 12.0 10.0 77 2.1 NNW 11 13 6 7 1013.7 1013.1 0.0
29/12:00am 14.7 13.1 10.1 74 2.4 NW 9 11 5 6 1014.0 1013.4 0.0
 
Date/Time
CDT
Temp
°C
App
Temp
°C
Dew
Point
°C
Rel
Hum
%
Delta-T
°C
Wind Press
QNH
hPa
Press
MSL
hPa
Rain since
9am
mm
Dir  Spd
km/h
Gust
km/h
Spd
kts
Gust
kts
28/11:30pm 15.3 13.3 10.3 72 2.6 WNW 11 15 6 8 1014.4 1013.8 0.0
28/11:00pm 15.6 13.5 9.9 69 3.0 WNW 11 13 6 7 1014.7 1014.1 0.0
28/10:30pm 15.7 13.6 9.8 68 3.1 W 11 13 6 7 1014.6 1014.0 0.0
28/10:00pm 16.0 13.9 9.9 67 3.2 W 11 13 6 7 1014.7 1014.1 0.0
28/09:30pm 16.3 14.3 10.2 67 3.2 WSW 11 13 6 7 1014.6 1014.0 0.0
28/09:00pm 16.9 14.6 10.5 66 3.4 SW 13 19 7 10 1014.4 1013.8 0.0
28/08:30pm 17.6 16.1 11.9 69 3.2 SW 11 17 6 9 1014.1 1013.5 0.0
28/08:00pm 18.4 16.7 12.4 68 3.4 S 13 15 7 8 1013.8 1013.2 0.0
28/07:30pm 19.7 17.9 12.2 62 4.2 S 13 15 7 8 1013.6 1013.0 0.0
28/07:00pm 21.5 18.3 11.8 54 5.5 S 20 24 11 13 1013.1 1012.5 0.0
28/06:30pm 23.8 19.1 10.5 43 7.4 SSW 26 43 14 23 1012.6 1012.0 0.0
28/06:16pm 24.4 18.9 9.2 38 8.3 WSW 28 46 15 25 1012.2 1011.6 0.0
28/06:00pm 25.6 21.3 7.7 32 9.6 W 20 24 11 13 1012.3 1011.7 0.0
28/05:30pm 26.3 22.6 7.8 31 10.0 WSW 17 30 9 16 1012.5 1011.9 0.0
28/05:00pm 26.3 22.6 7.8 31 10.0 W 17 28 9 15 1012.7 1012.1 0.0
28/04:30pm 26.0 22.3 8.0 32 9.7 WNW 17 32 9 17 1013.0 1012.4 0.0
28/04:00pm 26.4 22.8 8.4 32 9.8 WNW 17 26 9 14 1013.3 1012.7 0.0
28/03:30pm 24.8 20.8 8.3 35 8.9 W 19 28 10 15 1013.5 1012.9 0.0
28/03:00pm 24.7 20.7 8.2 35 8.9 WSW 19 33 10 18 1013.9 1013.3 0.0
28/02:30pm 24.1 20.4 8.1 36 8.6 W 17 24 9 13 1014.1 1013.5 0.0
28/02:00pm 23.1 20.4 9.1 41 7.6 WNW 13 20 7 11 1014.6 1014.0 0.0
28/01:30pm 22.6 20.8 9.4 43 7.2 NW 9 17 5 9 1015.2 1014.6 0.0
28/01:00pm 21.8 19.2 9.3 45 6.7 W 13 22 7 12 1015.9 1015.4 0.0
28/12:30pm 20.9 18.3 9.5 48 6.1 WNW 13 22 7 12 1016.4 1015.9 0.0
28/12:00pm 20.2 17.6 9.2 49 5.9 NW 13 20 7 11 1016.8 1016.3 0.0
28/11:30am 20.0 17.4 9.3 50 5.7 WSW 13 20 7 11 1017.2 1016.7 0.0
28/11:00am 18.8 16.3 9.8 56 4.8 WSW 13 20 7 11 1017.5 1017.0 0.0
28/10:30am 18.7 16.2 9.8 56 4.8 SW 13 20 7 11 1017.5 1017.0 0.0
28/10:00am 18.2 16.2 10.1 59 4.3 WNW 11 19 6 10 1017.6 1017.1 0.0
28/09:30am 17.1 15.1 10.0 63 3.8 W 11 17 6 9 1017.5 1017.0 0.0
28/09:00am 16.1 14.8 11.1 72 2.7 NW 9 11 5 6 1017.4 1016.9 0.0
28/08:30am 14.2 12.9 11.2 82 1.6 NNW 9 13 5 7 1017.2 1016.7 0.0
28/08:00am 12.5 10.6 10.6 88 1.0 NW 11 13 6 7 1016.9 1016.4 0.0
28/07:30am 11.9 9.9 10.1 89 0.9 NNW 11 15 6 8 1016.8 1016.3 0.0
28/07:00am 12.1 10.1 10.2 88 1.0 WNW 11 13 6 7 1016.4 1015.9 0.0
28/06:30am 12.0 9.9 9.9 87 1.1 NW 11 13 6 7 1016.5 1016.0 0.0
28/06:00am 12.1 10.1 10.0 87 1.1 NNW 11 13 6 7 1016.4 1015.9 0.0
28/05:30am 12.4 10.8 10.1 86 1.2 NNW 9 13 5 7 1016.1 1015.6 0.0
28/05:00am 13.0 11.1 10.5 85 1.3 NW 11 15 6 8 1016.1 1015.6 0.0
28/04:30am 13.5 11.6 10.5 82 1.6 WNW 11 15 6 8 1016.2 1015.7 0.0
28/04:00am 13.5 10.7 10.1 80 1.8 W 15 20 8 11 1016.4 1015.9 0.0
28/03:30am 13.5 11.9 10.1 80 1.8 NW 9 13 5 7 1016.8 1016.3 0.0
28/03:00am 14.2 12.7 10.4 78 2.0 NNW 9 13 5 7 1016.8 1016.3 0.0
28/02:30am 13.8 11.1 10.2 79 1.9 W 15 19 8 10 1017.0 1016.5 0.0
28/02:00am 13.8 12.1 10.0 78 2.0 WNW 9 11 5 6 1017.3 1016.8 0.0
28/01:30am 14.5 12.6 10.5 77 2.1 WNW 11 15 6 8 1017.6 1017.1 0.0
28/01:00am 14.3 12.3 10.3 77 2.1 WNW 11 13 6 7 1017.6 1017.1 0.0
28/12:30am 14.7 12.7 10.3 75 2.3 WNW 11 15 6 8 1017.6 1017.1 0.0
28/12:00am 14.8 12.4 10.2 74 2.4 W 13 17 7 9 1017.8 1017.3 0.0
 
Date/Time
CDT
Temp
°C
App
Temp
°C
Dew
Point
°C
Rel
Hum
%
Delta-T
°C
Wind Press
QNH
hPa
Press
MSL
hPa
Rain since
9am
mm
Dir  Spd
km/h
Gust
km/h
Spd
kts
Gust
kts
27/11:30pm 15.1 12.3 10.1 72 2.6 W 15 20 8 11 1017.8 1017.3 0.0
27/11:00pm 15.4 12.4 9.1 66 3.3 W 15 19 8 10 1017.8 1017.3 0.0
27/10:30pm 15.9 13.1 8.4 61 3.8 W 13 17 7 9 1017.8 1017.3 0.0
27/10:00pm 16.3 13.4 8.3 59 4.1 W 13 17 7 9 1017.6 1017.1 0.0
27/09:30pm 16.6 14.1 8.1 57 4.3 WNW 11 13 6 7 1017.3 1016.8 0.0
27/09:00pm 17.2 14.7 8.1 55 4.7 WNW 11 13 6 7 1017.1 1016.6 0.0
27/08:30pm 18.0 15.8 7.7 51 5.3 W 9 15 5 8 1016.8 1016.3 0.0
27/08:00pm 19.2 17.6 8.8 51 5.5 NW 7 15 4 8 1016.5 1016.0 0.0
27/07:30pm 19.3 19.4 10.3 56 4.9 CALM 0 0 0 0 1016.3 1015.8 0.0
27/07:00pm 20.4 19.1 11.1 55 5.1 SSE 9 13 5 7 1016.0 1015.5 0.0
27/06:30pm 21.4 18.9 10.9 51 5.8 SE 15 20 8 11 1015.7 1015.1 0.0
27/06:00pm 23.2 19.3 5.2 31 9.1 SW 15 19 8 10 1015.5 1014.9 0.0
27/05:30pm 23.8 19.3 6.1 32 9.1 SW 19 30 10 16 1015.3 1014.7 0.0
27/05:07pm 24.2 17.7 4.6 28 9.8 SW 28 46 15 25 1015.1 1014.5 0.0
27/05:00pm 24.0 18.3 4.9 29 9.6 SW 24 39 13 21 1015.1 1014.5 0.0
27/04:30pm 24.6 19.3 4.9 28 10.0 SW 22 33 12 18 1015.1 1014.5 0.0
27/04:00pm 24.1 17.4 3.4 26 10.2 SW 28 46 15 25 1015.2 1014.6 0.0
27/03:55pm 24.7 18.0 3.4 25 10.5 SW 28 46 15 25 1015.0 1014.4 0.0
27/03:30pm 24.1 17.7 3.4 26 10.2 SW 26 39 14 21 1015.1 1014.5 0.0
27/03:00pm 24.3 17.4 2.5 24 10.5 SW 28 39 15 21 1015.4 1014.8 0.0
27/02:30pm 23.5 16.8 3.4 27 9.8 SW 28 41 15 22 1015.8 1015.2 0.0
27/02:00pm 24.4 18.4 5.2 29 9.8 SW 26 43 14 23 1015.8 1015.2 0.0
27/01:30pm 23.8 17.5 5.7 31 9.2 SW 28 37 15 20 1016.0 1015.5 0.0
27/01:00pm 23.5 17.2 7.2 35 8.5 WSW 30 41 16 22 1016.2 1015.7 0.0
27/12:36pm 22.7 16.7 6.9 36 8.2 SW 28 48 15 26 1016.3 1015.8 0.0
27/12:30pm 22.9 17.7 7.1 36 8.2 SW 24 39 13 21 1016.3 1015.8 0.0
27/12:00pm 22.5 16.7 7.9 39 7.7 WSW 28 46 15 25 1016.1 1015.6 0.0
27/11:30am 22.2 16.7 9.0 43 7.1 WSW 28 41 15 22 1016.1 1015.6 0.0
27/11:00am 20.4 15.4 11.1 55 5.1 SW 28 39 15 21 1016.0 1015.5 0.0
27/10:30am 20.1 15.2 11.3 57 4.9 SW 28 39 15 21 1015.9 1015.4 0.0
27/10:08am 20.0 14.7 11.2 57 4.9 WSW 30 50 16 27 1015.7 1015.1 0.0
27/10:00am 19.7 14.5 11.7 60 4.5 WSW 30 43 16 23 1015.7 1015.1 0.0
27/09:30am 19.0 14.7 13.2 69 3.3 WSW 28 35 15 19 1015.3 1014.7 0.0
27/09:00am 19.1 14.8 13.1 68 3.4 WSW 28 35 15 19 1014.8 1014.2 0.0
27/08:30am 18.2 15.3 13.9 76 2.5 W 22 32 12 17 1014.1 1013.5 0.0
27/08:00am 17.9 14.2 14.0 78 2.2 W 26 33 14 18 1013.4 1012.8 0.0
27/07:30am 18.0 15.1 15.1 83 1.7 W 24 33 13 18 1013.0 1012.4 0.0
27/07:00am 18.3 15.6 15.7 85 1.5 W 24 39 13 21 1012.4 1011.8 0.0
27/06:30am 18.2 15.6 16.0 87 1.3 W 24 32 13 17 1011.9 1011.4 0.0
27/06:00am 18.4 16.1 15.6 84 1.7 W 22 30 12 16 1011.3 1010.8 0.0
27/05:30am 18.7 16.5 15.9 84 1.7 W 22 28 12 15 1010.6 1010.0 0.0
27/05:00am 19.0 15.3 15.9 82 1.9 W 30 39 16 21 1010.2 1009.6 0.0
27/04:30am 19.3 16.4 16.2 82 1.9 W 26 35 14 19 1010.4 1009.8 0.0
27/04:00am 19.6 16.1 16.4 82 1.9 W 30 41 16 22 1009.8 1009.2 0.0

Other Formats:

Comma delimited format used in spreadsheet applications
http://www.bom.gov.au/fwo/IDS60801/IDS60801.94662.axf

JavaScript Object Notation format (JSON) in row-major order
http://www.bom.gov.au/fwo/IDS60801/IDS60801.94662.json